Time;durP1;ratioP1;P1;durP2;ratioP2;P2;SDS_P1;SDS_P2;PMS_P1;PMS_P2;Temp;Humidity;BMP_temperature;BMP_pressure;BME280_temperature;BME280_humidity;BME280_pressure;Samples;Min_cycle;Max_cycle;Signal;HPM_P1;HPM_P2
2021/12/05 00:17:39;;;;;;;0.83;0.80;;;5.80;99.90;;;5.95;83.46;99363.22;5051082;28;20754;-66
2021/12/05 00:23:02;;;;;;;1.63;1.00;;;5.80;99.90;;;5.96;84.13;99364.06;5030258;28;20724;-66
2021/12/05 00:25:31;;;;;;;1.35;1.25;;;5.80;99.90;;;5.98;84.51;99360.41;5030277;28;20616;-66
2021/12/05 00:28:24;;;;;;;1.08;0.98;;;5.80;99.90;;;6.00;84.36;99365.47;5031851;28;20217;-66
2021/12/05 00:31:13;;;;;;;2.03;0.97;;;5.90;99.90;;;5.99;84.11;99364.66;5031962;28;20821;-66
2021/12/05 00:34:07;;;;;;;1.10;1.10;;;5.90;99.90;;;6.03;82.82;99367.81;5045531;28;20631;-66
2021/12/05 01:16:29;;;;;;;0.83;0.60;;;5.50;99.90;;;5.68;90.78;99357.44;5046506;28;20723;-66
2021/12/05 01:18:57;;;;;;;1.37;0.80;;;5.50;99.90;;;5.64;91.64;99363.75;5033605;28;20627;-66
2021/12/05 01:21:25;;;;;;;0.50;0.50;;;5.50;99.90;;;5.63;91.56;99362.09;5049359;28;20671;-66
2021/12/05 01:24:20;;;;;;;0.70;0.70;;;5.50;99.90;;;5.58;91.71;99359.00;5050035;28;20231;-66
2021/12/05 01:29:36;;;;;;;0.70;0.70;;;5.50;99.90;;;5.59;91.40;99360.66;5048823;28;20663;-66
2021/12/05 01:34:49;;;;;;;6.00;0.73;;;5.50;99.90;;;5.61;91.19;99374.31;5049675;28;20209;-64
2021/12/05 01:39:57;;;;;;;0.60;0.60;;;5.40;99.90;;;5.63;90.19;99364.69;5041051;28;20666;-66
2021/12/05 01:45:28;;;;;;;0.97;0.60;;;5.60;99.90;;;5.75;89.37;99384.50;5050631;28;20211;-66
2021/12/05 01:53:44;;;;;;;0.73;0.73;;;5.60;99.90;;;5.76;88.78;99381.00;5042016;28;20670;-66
2021/12/05 01:59:06;;;;;;;0.50;0.50;;;5.60;99.90;;;5.78;88.29;99386.88;5049863;28;20730;-66
2021/12/05 02:40:19;;;;;;;1.83;1.03;;;5.60;99.90;;;5.77;87.62;99363.69;5052614;28;21486;-65
2021/12/05 02:43:10;;;;;;;0.60;0.60;;;5.60;99.90;;;5.79;85.90;99359.25;5052372;28;20710;-66
2021/12/05 02:45:41;;;;;;;0.50;0.50;;;5.70;99.90;;;5.81;85.42;99362.53;5052262;28;20776;-66
2021/12/05 02:48:09;;;;;;;2.65;0.80;;;5.80;99.90;;;5.85;84.76;99362.25;5052820;28;20638;-66
2021/12/05 02:50:37;;;;;;;1.67;1.13;;;5.70;99.90;;;5.84;84.63;99358.00;5051153;28;20229;-65
2021/12/05 02:53:17;;;;;;;2.40;0.90;;;5.70;99.90;;;5.91;83.82;99363.56;5051863;28;20727;-66
2021/12/05 02:55:49;;;;;;;0.73;0.73;;;5.80;99.90;;;5.91;83.34;99359.19;5052281;28;20645;-65
2021/12/05 03:01:21;;;;;;;0.80;0.80;;;5.80;99.90;;;5.91;82.74;99361.78;5050545;28;20213;-66
2021/12/05 03:03:51;;;;;;;0.60;0.60;;;5.80;99.90;;;5.91;82.60;99369.56;5052620;28;20201;-65
2021/12/05 03:06:26;;;;;;;0.73;0.70;;;5.80;99.90;;;5.88;81.94;99353.41;5051712;28;20678;-65
2021/12/05 03:09:12;;;;;;;1.70;0.95;;;5.80;99.90;;;5.88;81.20;99350.81;5051588;28;20645;-66
2021/12/05 03:11:41;;;;;;;1.77;0.80;;;5.80;99.90;;;5.94;81.14;99353.78;5050649;28;20216;-65
2021/12/05 03:14:09;;;;;;;0.50;0.50;;;5.80;99.90;;;5.96;81.65;99351.91;5051451;28;21222;-65
2021/12/05 03:16:38;;;;;;;0.50;0.50;;;5.80;99.90;;;5.96;80.72;99343.34;5053035;28;20300;-66
2021/12/05 03:19:09;;;;;;;0.70;0.70;;;5.80;99.90;;;5.99;80.85;99336.16;5050537;28;21245;-65
2021/12/05 03:21:38;;;;;;;0.50;0.50;;;5.80;99.90;;;6.02;80.05;99335.94;5051503;28;20231;-66
2021/12/05 03:24:07;;;;;;;1.60;0.73;;;5.90;99.90;;;6.05;79.89;99327.09;5033132;28;20197;-65
2021/12/05 03:26:40;;;;;;;2.40;0.57;;;5.90;99.90;;;6.02;79.60;99320.41;5042957;28;20739;-65
2021/12/05 03:29:10;;;;;;;2.60;0.60;;;5.90;99.90;;;6.01;79.51;99325.69;5050205;28;20675;-66
2021/12/05 03:31:38;;;;;;;1.17;0.50;;;5.80;99.90;;;5.95;80.03;99320.97;5052536;28;20730;-65
2021/12/05 03:34:09;;;;;;;0.60;0.60;;;5.80;99.90;;;5.88;80.09;99323.19;5051971;28;20639;-66
2021/12/05 03:36:38;;;;;;;0.60;0.60;;;5.70;99.90;;;5.82;80.16;99323.59;5051218;28;21010;-66
2021/12/05 03:39:07;;;;;;;0.80;0.63;;;5.60;99.90;;;5.73;80.87;99328.63;5049867;28;20670;-66
2021/12/05 03:41:36;;;;;;;0.60;0.60;;;5.50;99.90;;;5.69;81.15;99328.00;5050137;28;21218;-66
2021/12/05 03:44:06;;;;;;;0.73;0.60;;;5.50;99.90;;;5.76;80.43;99329.22;5051867;28;20630;-66
2021/12/05 03:46:34;;;;;;;1.40;1.30;;;5.60;99.90;;;5.73;80.82;99333.81;5051769;28;21209;-65
2021/12/05 03:49:10;;;;;;;1.20;0.70;;;5.60;99.90;;;5.73;80.84;99332.03;5052839;28;20616;-65
2021/12/05 03:51:44;;;;;;;0.65;0.65;;;5.60;99.90;;;5.72;80.49;99332.97;5050336;28;20739;-65
2021/12/05 03:54:11;;;;;;;1.88;0.75;;;5.60;99.90;;;5.69;81.09;99334.94;5052634;28;20211;-66
2021/12/05 03:56:39;;;;;;;0.70;0.70;;;5.50;99.90;;;5.63;81.52;99330.22;5049971;28;20212;-66
2021/12/05 03:59:10;;;;;;;1.07;0.67;;;5.50;99.90;;;5.58;81.69;99325.38;5040923;28;20226;-65
2021/12/05 04:01:39;;;;;;;0.70;0.70;;;5.40;99.90;;;5.53;82.57;99321.47;5039622;28;20652;-66
2021/12/05 04:04:08;;;;;;;0.50;0.50;;;5.30;99.90;;;5.47;83.80;99325.34;5050681;28;21207;-66
2021/12/05 04:06:36;;;;;;;0.43;0.43;;;5.20;99.90;;;5.36;85.12;99320.09;5050482;28;20611;-66
2021/12/05 04:09:10;;;;;;;0.60;0.60;;;5.20;99.90;;;5.32;85.59;99319.47;5048723;28;20280;-66
2021/12/05 04:11:47;;;;;;;0.30;0.30;;;5.10;99.90;;;5.27;86.14;99321.56;5052103;28;20225;-66
2021/12/05 04:14:15;;;;;;;0.65;0.65;;;5.10;99.90;;;5.21;87.66;99316.00;5051345;28;20201;-66
2021/12/05 04:16:43;;;;;;;0.60;0.60;;;5.00;99.90;;;5.18;87.78;99311.88;5052175;28;20300;-66
2021/12/05 04:19:11;;;;;;;1.20;0.60;;;5.00;99.90;;;5.21;87.85;99305.66;5033171;28;20607;-66
2021/12/05 04:21:39;;;;;;;0.60;0.60;;;5.00;99.90;;;5.17;88.25;99306.81;5035488;28;20229;-66
2021/12/05 04:24:08;;;;;;;2.35;0.73;;;5.00;99.90;;;5.13;88.89;99315.72;5051073;28;20276;-66
2021/12/05 04:26:36;;;;;;;0.40;0.40;;;4.90;99.90;;;5.13;88.63;99316.53;5044678;28;20198;-66
2021/12/05 04:29:04;;;;;;;0.57;0.57;;;5.00;99.90;;;5.06;89.53;99323.09;5036858;28;20235;-66
2021/12/05 04:31:33;;;;;;;0.52;0.52;;;4.90;99.90;;;5.09;89.50;99322.84;5029693;28;20229;-66
2021/12/05 04:34:00;;;;;;;0.60;0.60;;;4.90;99.90;;;5.06;90.19;99322.25;5036448;28;20685;-66
2021/12/05 04:36:27;;;;;;;0.60;0.60;;;4.90;99.90;;;5.02;90.70;99311.31;5049273;28;20193;-66
2021/12/05 04:38:55;;;;;;;0.80;0.80;;;4.90;99.90;;;5.00;90.91;99312.34;5030423;28;20230;-66
2021/12/05 04:41:23;;;;;;;2.75;0.80;;;4.90;99.90;;;5.04;90.80;99308.59;5036507;28;20217;-66
2021/12/05 04:43:51;;;;;;;0.70;0.40;;;4.90;99.90;;;4.95;91.25;99311.81;5050398;28;20197;-66
2021/12/05 04:46:23;;;;;;;4.53;0.88;;;4.80;99.90;;;4.95;91.36;99310.06;5048841;28;20649;-66
2021/12/05 04:48:53;;;;;;;1.00;0.88;;;4.80;99.90;;;4.94;91.21;99302.44;5065758;28;20208;-66
2021/12/05 04:51:27;;;;;;;1.83;1.08;;;4.80;99.90;;;4.92;92.19;99309.47;5050992;28;20235;-66
2021/12/05 04:53:55;;;;;;;0.73;0.70;;;4.80;99.90;;;4.96;91.54;99305.75;5049789;28;20197;-66
2021/12/05 04:56:23;;;;;;;0.30;0.30;;;4.80;99.90;;;4.96;92.12;99301.38;5030805;28;20206;-66
2021/12/05 04:58:53;;;;;;;0.77;0.77;;;4.90;99.90;;;5.03;91.34;99310.34;5030049;28;20243;-65
2021/12/05 05:01:21;;;;;;;0.30;0.30;;;4.90;99.90;;;5.05;91.49;99305.91;5041975;28;20300;-66
2021/12/05 05:03:50;;;;;;;0.60;0.60;;;4.90;99.90;;;5.09;91.30;99311.72;5051099;28;20207;-66
2021/12/05 05:06:19;;;;;;;0.60;0.60;;;5.00;99.90;;;5.13;91.30;99307.97;5047500;28;20649;-66
2021/12/05 05:08:52;;;;;;;0.40;0.40;;;5.00;99.90;;;5.05;91.52;99310.25;5039083;28;20306;-66
2021/12/05 05:11:22;;;;;;;0.50;0.50;;;4.90;99.90;;;5.00;91.87;99307.19;5050504;28;20217;-66
2021/12/05 05:13:50;;;;;;;0.40;0.40;;;4.90;99.90;;;4.98;91.91;99304.72;5049241;28;20692;-66
2021/12/05 05:16:20;;;;;;;0.55;0.55;;;4.90;99.90;;;4.94;92.74;99307.59;5050056;28;20201;-66
2021/12/05 05:18:53;;;;;;;0.30;0.30;;;4.80;99.90;;;4.81;92.91;99302.47;5048919;28;20271;-66
2021/12/05 05:24:28;;;;;;;0.93;0.50;;;4.60;99.90;;;4.77;93.43;99298.41;5047336;28;20201;-66
2021/12/05 05:27:28;;;;;;;0.55;0.55;;;4.60;99.90;;;4.76;93.34;99299.38;5041750;28;20667;-66
2021/12/05 05:46:12;;;;;;;0.20;0.20;;;4.30;99.90;;;4.43;95.39;99323.16;5053265;28;20206;-66
2021/12/05 05:48:44;;;;;;;0.40;0.40;;;4.20;99.90;;;4.44;95.89;99319.66;5053758;28;20211;-66
2021/12/05 05:51:11;;;;;;;0.50;0.50;;;4.30;99.90;;;4.42;95.79;99323.25;5067626;22;20257;-65
2021/12/05 05:53:39;;;;;;;0.50;0.50;;;4.30;99.90;;;4.36;96.25;99319.34;5053606;28;20235;-65
2021/12/05 05:56:16;;;;;;;0.60;0.60;;;4.20;99.90;;;4.33;95.55;99331.63;5053098;28;20202;-65
2021/12/05 05:58:58;;;;;;;0.38;0.38;;;4.20;99.90;;;4.32;96.51;99328.19;5052186;28;20652;-65
2021/12/05 06:04:04;;;;;;;0.50;0.50;;;4.20;99.90;;;4.40;96.61;99331.13;5053429;28;20581;-64
2021/12/05 06:06:32;;;;;;;0.43;0.43;;;4.30;99.90;;;4.39;96.18;99323.44;5044963;28;20647;-65
2021/12/05 06:09:01;;;;;;;2.08;1.50;;;4.30;99.90;;;4.35;96.28;99314.25;5049260;28;20676;-65
2021/12/05 06:11:29;;;;;;;0.57;0.57;;;4.20;99.90;;;4.39;95.57;99313.13;5050614;28;20240;-66
2021/12/05 06:13:56;;;;;;;0.30;0.30;;;4.30;99.90;;;4.41;95.29;99309.50;5052832;28;20209;-65
2021/12/05 06:16:22;;;;;;;1.58;0.30;;;4.30;99.90;;;4.30;95.20;99304.22;5037363;28;20292;-65
2021/12/05 06:18:49;;;;;;;2.85;0.40;;;4.20;99.90;;;4.28;95.23;99313.84;5033296;28;20309;-65
2021/12/05 06:21:17;;;;;;;0.73;0.40;;;4.20;99.90;;;4.29;95.04;99323.25;5051235;28;20318;-65
2021/12/05 06:23:45;;;;;;;0.30;0.30;;;4.20;99.90;;;4.25;95.52;99324.41;5053709;28;20211;-65
2021/12/05 06:26:19;;;;;;;0.38;0.38;;;4.10;99.90;;;4.26;95.47;99328.59;5052416;28;20201;-65
2021/12/05 06:48:00;;;;;;;0.63;0.50;;;4.20;99.90;;;4.39;97.56;99342.34;5031369;28;20281;-66
2021/12/05 06:50:27;;;;;;;2.75;0.60;;;4.30;99.90;;;4.45;97.67;99341.94;5043762;28;20687;-64
2021/12/05 06:52:54;;;;;;;0.75;0.65;;;4.30;99.90;;;4.40;98.04;99344.03;5046645;28;20316;-64
2021/12/05 06:55:21;;;;;;;0.20;0.20;;;4.30;99.90;;;4.40;98.05;99349.19;5035634;28;20204;-65
2021/12/05 06:57:48;;;;;;;0.73;0.73;;;4.30;99.90;;;4.33;98.94;99347.94;5030132;28;20296;-65
2021/12/05 07:00:26;;;;;;;0.95;0.55;;;4.20;99.90;;;4.36;98.89;99349.50;5040471;28;20202;-64
2021/12/05 07:02:54;;;;;;;1.05;0.50;;;4.20;99.90;;;4.39;99.08;99357.84;5063625;28;20218;-65
2021/12/05 07:08:00;;;;;;;0.70;0.35;;;4.30;99.90;;;4.48;99.20;99359.00;5036260;28;20224;-65
2021/12/05 07:10:29;;;;;;;0.50;0.50;;;4.40;99.90;;;4.46;99.10;99363.44;5037848;28;20301;-66
2021/12/05 07:15:55;;;;;;;4.43;0.80;;;4.40;99.90;;;4.50;98.71;99372.63;5042726;28;20198;-65
2021/12/05 07:21:22;;;;;;;1.00;0.60;;;4.40;99.90;;;4.54;98.90;99377.50;5052304;28;20307;-65
2021/12/05 07:26:35;;;;;;;0.35;0.35;;;4.50;99.90;;;4.57;99.11;99385.06;5045215;28;20283;-66
2021/12/05 07:40:26;;;;;;;0.45;0.45;;;4.60;99.90;;;4.64;98.03;99386.28;5049944;28;20248;-65
2021/12/05 07:42:56;;;;;;;0.90;0.90;;;4.60;99.90;;;4.76;97.91;99384.63;5050494;28;20229;-64
2021/12/05 07:45:32;;;;;;;0.50;0.40;;;4.70;99.90;;;4.80;97.41;99393.81;5050432;28;20589;-65
2021/12/05 07:48:10;;;;;;;2.15;0.85;;;4.70;99.90;;;4.85;96.39;99394.34;5053221;28;20280;-65
2021/12/05 07:50:55;;;;;;;5.38;0.88;;;4.80;99.90;;;4.84;96.13;99400.44;5050944;28;20292;-65
2021/12/05 07:53:31;;;;;;;2.63;0.70;;;4.80;99.90;;;4.88;95.71;99391.53;5036157;28;20204;-65
2021/12/05 07:56:07;;;;;;;0.70;0.70;;;4.80;99.90;;;4.86;95.60;99397.75;5050354;28;20288;-65
2021/12/05 08:15:15;;;;;;;0.30;0.30;;;5.80;99.90;;;7.16;84.99;99411.03;5050707;28;20232;-66
2021/12/05 08:17:51;;;;;;;0.77;0.60;;;7.40;99.90;;;8.40;78.48;99407.09;5031160;28;20236;-66
2021/12/05 08:20:23;;;;;;;0.77;0.40;;;8.80;99.90;;;9.58;71.58;99414.38;5046168;28;21185;-66
2021/12/05 08:22:51;;;;;;;1.17;0.80;;;10.20;99.90;;;11.28;65.88;99416.19;5049840;28;20729;-64
2021/12/05 08:25:22;;;;;;;1.30;0.70;;;11.70;99.90;;;12.54;59.99;99417.84;5050433;28;20627;-65
2021/12/05 08:27:53;;;;;;;1.83;0.70;;;13.30;99.90;;;13.23;56.70;99422.09;5051435;28;20612;-67
2021/12/05 08:30:30;;;;;;;0.50;0.50;;;14.10;99.00;;;14.61;53.23;99431.13;5032116;28;21112;-66
2021/12/05 08:36:16;;;;;;;2.13;0.90;;;16.60;91.70;;;14.91;50.28;99421.72;5050694;28;20638;-66
2021/12/05 09:25:41;;;;;;;0.73;0.73;;;7.40;99.90;;;7.28;78.00;99438.63;5047962;28;20698;-65
2021/12/05 09:38:38;;;;;;;0.50;0.50;;;6.90;99.90;;;6.80;81.68;99440.59;5036284;28;20733;-64
2021/12/05 09:39:51;;;;;;;0.50;0.47;;;6.50;99.90;;;6.50;82.63;99440.28;5047131;28;21043;-64
2021/12/05 10:35:58;;;;;;;0.50;0.50;;;7.60;99.90;;;7.25;79.01;99425.06;5052534;28;20710;-65
2021/12/05 10:38:29;;;;;;;0.60;0.60;;;7.30;99.90;;;7.31;80.14;99414.19;5048721;28;20626;-64
2021/12/05 10:41:22;;;;;;;0.93;0.93;;;7.20;99.90;;;7.55;79.22;99423.50;5034177;28;20676;-64
2021/12/05 10:43:54;;;;;;;0.70;0.70;;;7.50;99.90;;;7.52;78.53;99428.09;5051040;28;20628;-64
2021/12/05 10:46:25;;;;;;;0.83;0.83;;;7.60;99.90;;;7.50;78.80;99423.03;5051799;28;20622;-64
2021/12/05 10:49:07;;;;;;;0.57;0.57;;;7.50;99.90;;;7.30;79.29;99428.97;5053855;28;20713;-63
2021/12/05 10:51:44;;;;;;;0.73;0.70;;;7.30;99.90;;;7.17;79.99;99427.41;5054188;28;20718;-64
2021/12/05 10:54:22;;;;;;;3.00;0.87;;;7.10;99.90;;;7.30;80.69;99431.56;5049344;28;20622;-65
2021/12/05 10:57:00;;;;;;;0.70;0.70;;;7.30;99.90;;;7.38;80.86;99428.34;5043317;28;20730;-65
2021/12/05 10:59:38;;;;;;;0.40;0.40;;;7.30;99.90;;;7.37;79.41;99432.72;5045432;28;20747;-65
2021/12/05 11:02:30;;;;;;;1.20;1.20;;;7.30;99.90;;;7.32;79.89;99428.84;5021663;28;20735;-65
2021/12/05 11:04:57;;;;;;;0.90;0.90;;;7.20;99.90;;;7.39;79.36;99430.03;5042412;28;20616;-65
2021/12/05 11:07:24;;;;;;;0.50;0.50;;;7.40;99.90;;;7.57;78.39;99431.16;5037253;28;20632;-65
2021/12/05 11:09:57;;;;;;;1.23;1.13;;;7.60;99.90;;;7.93;77.84;99424.81;5034245;28;21247;-65
2021/12/05 11:12:34;;;;;;;0.80;0.80;;;8.00;99.90;;;8.22;77.09;99425.94;5038708;28;20666;-65
2021/12/05 11:15:13;;;;;;;0.70;0.70;;;8.40;99.90;;;8.30;74.51;99420.97;5033897;28;20666;-65
2021/12/05 11:17:46;;;;;;;0.30;0.30;;;8.50;99.90;;;8.20;73.97;99414.84;5046227;28;20723;-65
2021/12/05 11:20:28;;;;;;;0.80;0.80;;;8.30;99.90;;;8.10;74.27;99413.91;5045772;28;20771;-65
2021/12/05 11:22:56;;;;;;;0.37;0.37;;;8.10;99.90;;;7.82;75.69;99415.28;5047737;28;20676;-66
2021/12/05 11:25:28;;;;;;;0.60;0.50;;;7.80;99.90;;;7.75;76.59;99417.56;5046236;28;20723;-65
2021/12/05 11:27:59;;;;;;;0.80;0.80;;;7.60;99.90;;;7.72;75.92;99420.41;5051864;28;20650;-65
2021/12/05 11:30:40;;;;;;;0.50;0.50;;;7.60;99.90;;;7.75;75.38;99420.16;5035602;28;20723;-66
2021/12/05 11:33:18;;;;;;;0.30;0.30;;;7.60;99.90;;;7.62;75.54;99411.69;5037576;28;20623;-65
2021/12/05 11:35:59;;;;;;;0.60;0.60;;;7.50;99.90;;;7.71;75.33;99415.31;5033395;28;21373;-65
2021/12/05 11:38:34;;;;;;;0.60;0.50;;;7.60;99.90;;;7.90;75.19;99409.50;5039140;28;21202;-65
2021/12/05 11:41:10;;;;;;;0.80;0.70;;;7.80;99.90;;;8.17;74.44;99405.50;5048515;28;20718;-65
2021/12/05 11:43:45;;;;;;;0.50;0.50;;;8.30;99.90;;;8.37;72.67;99403.88;5052308;28;20607;-66
2021/12/05 11:46:32;;;;;;;0.40;0.40;;;8.50;99.90;;;8.50;71.94;99405.38;5050721;28;20633;-66
2021/12/05 11:49:02;;;;;;;4.33;0.47;;;8.60;99.90;;;8.61;70.21;99407.06;5051400;28;21224;-66
2021/12/05 11:51:38;;;;;;;0.30;0.30;;;8.70;99.90;;;8.21;70.09;99408.69;5033532;28;20655;-66
2021/12/05 11:54:14;;;;;;;1.57;0.70;;;8.20;99.90;;;7.91;71.66;99409.38;5035042;28;20619;-69
2021/12/05 11:56:57;;;;;;;6.90;3.40;;;7.80;99.90;;;7.70;73.36;99408.50;5039853;28;20640;-67
2021/12/05 11:59:40;;;;;;;4.53;3.20;;;7.50;99.90;;;7.52;75.98;99400.38;5049418;28;20664;-68
2021/12/05 12:02:25;;;;;;;0.60;0.60;;;7.30;99.90;;;7.55;74.97;99401.91;5033536;28;20675;-65
2021/12/05 12:05:25;;;;;;;1.60;1.33;;;7.40;99.90;;;7.51;76.04;99403.94;5048811;28;21237;-65
2021/12/05 12:08:07;;;;;;;1.77;0.60;;;7.30;99.90;;;7.60;74.64;99397.19;5051108;28;20632;-65
2021/12/05 12:10:42;;;;;;;0.40;0.40;;;7.50;99.90;;;7.49;74.28;99400.63;5051428;28;20977;-65
2021/12/05 12:13:35;;;;;;;0.63;0.63;;;7.40;99.90;;;7.60;75.09;99402.38;5052566;28;20706;-66
2021/12/05 12:16:07;;;;;;;0.60;0.60;;;7.50;99.90;;;7.72;74.34;99394.44;5050834;28;20616;-66
2021/12/05 12:18:40;;;;;;;0.50;0.50;;;7.60;99.90;;;7.69;73.08;99401.63;5050887;28;20968;-66
2021/12/05 12:21:38;;;;;;;0.30;0.30;;;7.70;99.90;;;7.67;74.69;99398.34;5051874;28;21038;-65
2021/12/05 12:24:07;;;;;;;0.80;0.80;;;7.60;99.90;;;7.63;74.57;99402.97;5052030;28;20819;-66
2021/12/05 12:26:34;;;;;;;0.73;0.73;;;7.50;99.90;;;7.54;74.09;99400.25;5047003;28;20691;-65
2021/12/05 12:29:02;;;;;;;0.83;0.83;;;7.40;99.90;;;7.51;74.83;99395.31;5031703;28;20645;-65
2021/12/05 12:31:35;;;;;;;0.77;0.77;;;7.30;99.90;;;7.49;74.66;99386.81;5030892;28;21204;-65
2021/12/05 12:34:18;;;;;;;0.90;0.90;;;7.30;99.90;;;7.49;75.98;99384.22;5031178;28;20853;-65
2021/12/05 12:36:48;;;;;;;0.60;0.60;;;7.30;99.90;;;7.43;75.99;99390.72;5031762;28;20608;-64
2021/12/05 12:39:15;;;;;;;0.60;0.60;;;7.30;99.90;;;7.41;75.95;99390.00;5031592;28;21037;-64
2021/12/05 12:42:19;;;;;;;0.80;0.80;;;7.20;99.90;;;7.40;76.08;99395.34;5031728;28;21270;-66
2021/12/05 12:45:16;;;;;;;0.50;0.50;;;7.30;99.90;;;7.28;75.75;99384.16;5031869;28;20674;-66
2021/12/05 12:47:55;;;;;;;0.50;0.50;;;7.10;99.90;;;7.19;75.48;99387.47;5032815;28;20645;-65
2021/12/05 12:50:35;;;;;;;0.80;0.80;;;7.00;99.90;;;7.06;77.15;99389.34;5030941;28;20655;-65
2021/12/05 12:53:09;;;;;;;1.07;0.70;;;6.80;99.90;;;6.99;78.00;99389.00;5034995;28;21206;-67
2021/12/05 12:55:43;;;;;;;0.50;0.50;;;6.70;99.90;;;6.95;78.35;99390.16;5031636;28;21235;-66
2021/12/05 12:58:11;;;;;;;0.70;0.70;;;6.80;99.90;;;6.94;77.38;99393.69;5039559;28;20619;-67
2021/12/05 13:00:44;;;;;;;0.70;0.70;;;6.70;99.90;;;6.99;78.33;99394.16;5047732;28;20759;-65
2021/12/05 13:03:27;;;;;;;0.80;0.80;;;6.80;99.90;;;7.12;77.59;99388.88;5051796;28;20616;-66
2021/12/05 13:11:55;;;;;;;0.63;0.63;;;7.10;99.90;;;7.27;78.45;99397.22;5050614;28;20726;-64
2021/12/05 13:14:23;;;;;;;0.70;0.70;;;7.10;99.90;;;7.20;77.49;99409.84;5051570;28;20703;-65
2021/12/05 13:16:50;;;;;;;1.33;0.70;;;7.10;99.90;;;7.23;77.53;99399.25;5049715;28;20753;-65
2021/12/05 13:19:22;;;;;;;0.70;0.70;;;7.00;99.90;;;7.26;77.43;99405.97;5050238;28;21225;-64
2021/12/05 13:22:04;;;;;;;1.03;0.77;;;7.10;99.90;;;7.26;76.28;99411.16;5050174;28;21267;-65
2021/12/05 13:24:42;;;;;;;0.30;0.30;;;7.10;99.90;;;7.24;76.78;99416.44;5035110;28;21267;-65
2021/12/05 13:27:31;;;;;;;0.77;0.70;;;7.10;99.90;;;7.27;76.77;99403.25;5033608;28;20604;-66
2021/12/05 13:29:59;;;;;;;0.73;0.73;;;7.10;99.90;;;7.24;77.25;99410.44;5050135;28;20615;-65
2021/12/05 13:32:31;;;;;;;0.87;0.87;;;7.00;99.90;;;7.17;78.36;99407.50;5049692;28;20627;-66
2021/12/05 13:35:06;;;;;;;0.80;0.80;;;7.00;99.90;;;7.08;78.34;99415.97;5049232;28;20616;-65
2021/12/05 13:37:48;;;;;;;5.30;0.87;;;6.90;99.90;;;7.05;78.65;99416.22;5050316;28;20677;-64
2021/12/05 13:40:24;;;;;;;0.87;0.87;;;6.90;99.90;;;7.02;79.83;99421.66;5035834;28;21239;-65
2021/12/05 13:43:03;;;;;;;3.47;0.90;;;6.80;99.90;;;7.01;79.27;99423.41;5049162;28;20697;-65
2021/12/05 13:45:41;;;;;;;0.63;0.63;;;6.80;99.90;;;6.93;79.83;99417.97;5051020;28;21032;-65
2021/12/05 13:48:20;;;;;;;0.70;0.70;;;6.70;99.90;;;6.96;78.97;99428.09;5050224;28;20611;-65
2021/12/05 13:50:51;;;;;;;0.50;0.50;;;6.70;99.90;;;6.91;79.30;99427.66;5050937;28;21245;-64
2021/12/05 13:53:27;;;;;;;0.80;0.60;;;6.70;99.90;;;6.88;78.34;99420.09;5049935;28;20643;-65
2021/12/05 13:56:02;;;;;;;0.70;0.70;;;6.70;99.90;;;6.89;78.39;99426.94;5034355;28;20614;-65
2021/12/05 13:58:41;;;;;;;0.60;0.60;;;6.70;99.90;;;6.86;78.03;99428.91;5049768;28;20623;-65
2021/12/05 14:01:18;;;;;;;0.70;0.70;;;6.60;99.90;;;6.85;78.47;99422.09;5050978;28;20694;-65
2021/12/05 14:04:05;;;;;;;0.70;0.70;;;6.70;99.90;;;6.83;78.95;99426.56;5031574;28;20624;-65
2021/12/05 14:06:53;;;;;;;0.67;0.67;;;6.60;99.90;;;6.85;79.09;99441.06;5032974;28;20617;-65
2021/12/05 14:09:28;;;;;;;0.57;0.57;;;6.70;99.90;;;6.83;78.35;99434.34;5034845;28;20678;-65
2021/12/05 14:12:06;;;;;;;0.50;0.50;;;6.60;99.90;;;6.83;77.97;99434.34;5034566;28;21056;-65
2021/12/05 14:14:49;;;;;;;0.73;0.70;;;6.60;99.90;;;6.83;77.83;99442.13;5034512;28;20694;-63
2021/12/05 14:17:30;;;;;;;0.77;0.77;;;6.60;99.90;;;6.79;79.24;99436.34;5051106;28;20714;-64
2021/12/05 14:20:16;;;;;;;0.90;0.90;;;6.60;99.90;;;6.79;78.38;99448.50;5054666;28;20683;-65
2021/12/05 14:22:48;;;;;;;0.80;0.73;;;6.60;99.90;;;6.81;79.84;99446.59;5053224;28;20643;-66
2021/12/05 14:25:28;;;;;;;0.57;0.57;;;6.60;99.90;;;6.81;79.37;99444.00;5053084;28;20707;-64
2021/12/05 14:28:02;;;;;;;0.50;0.50;;;6.60;99.90;;;6.84;79.34;99452.38;5054548;28;20639;-66
2021/12/05 14:30:34;;;;;;;0.50;0.50;;;6.60;99.90;;;6.79;78.52;99453.69;5044509;28;20631;-66
2021/12/05 14:33:02;;;;;;;0.43;0.43;;;6.60;99.90;;;6.73;78.05;99462.72;5053265;28;20612;-66
2021/12/05 14:35:37;;;;;;;0.60;0.60;;;6.50;99.90;;;6.68;77.53;99458.81;5052730;28;20646;-66
2021/12/05 14:38:06;;;;;;;0.50;0.50;;;6.50;99.90;;;6.64;77.99;99465.19;5047696;28;20696;-66
2021/12/05 14:40:37;;;;;;;0.70;0.60;;;6.40;99.90;;;6.57;77.79;99464.81;5051509;28;20706;-66
2021/12/05 14:43:09;;;;;;;0.40;0.40;;;6.40;99.90;;;6.61;80.76;99474.00;5052918;28;21258;-64
2021/12/05 14:45:40;;;;;;;0.57;0.57;;;6.40;99.90;;;6.65;80.02;99475.44;5054919;28;20655;-64
2021/12/05 14:48:13;;;;;;;0.60;0.60;;;6.50;99.90;;;6.69;78.67;99481.19;5060857;28;20944;-66
2021/12/05 14:50:53;;;;;;;0.40;0.40;;;6.50;99.90;;;6.70;78.42;99485.47;5033717;28;20608;-66
2021/12/05 14:53:22;;;;;;;0.40;0.40;;;6.50;99.90;;;6.67;77.79;99488.25;5033826;28;20711;-66
2021/12/05 14:55:54;;;;;;;0.60;0.60;;;6.50;99.90;;;6.65;78.46;99501.34;5035188;28;20620;-66
2021/12/05 14:58:21;;;;;;;0.57;0.57;;;6.50;99.90;;;6.64;79.36;99504.88;5033565;28;20625;-66
2021/12/05 15:00:52;;;;;;;0.70;0.70;;;6.40;99.90;;;6.61;79.41;99501.69;5033780;28;20741;-67
2021/12/05 15:03:25;;;;;;;0.60;0.60;;;6.40;99.90;;;6.59;79.40;99508.75;5035155;28;20615;-66
2021/12/05 15:06:00;;;;;;;16.73;5.97;;;6.40;99.90;;;6.55;79.75;99510.75;5052673;28;21121;-65
2021/12/05 15:08:31;;;;;;;10.50;5.80;;;6.30;99.90;;;6.50;79.00;99509.41;5034485;28;20961;-66
2021/12/05 15:11:02;;;;;;;0.90;0.90;;;6.30;99.90;;;6.44;79.23;99512.44;5032996;28;20668;-66
2021/12/05 15:13:29;;;;;;;0.80;0.80;;;6.20;99.90;;;6.39;78.96;99510.19;5032306;28;20650;-67
2021/12/05 15:15:58;;;;;;;0.80;0.63;;;6.10;99.90;;;6.34;78.22;99506.28;5021801;28;20619;-66
2021/12/05 15:18:32;;;;;;;0.93;0.93;;;6.10;99.90;;;6.26;78.53;99518.00;5052361;28;20814;-66
2021/12/05 15:21:01;;;;;;;0.87;0.87;;;6.00;99.90;;;6.19;79.67;99524.59;5052073;28;21102;-66
2021/12/05 15:23:31;;;;;;;1.60;1.50;;;6.00;99.90;;;6.15;80.00;99533.47;5053540;28;20622;-64
2021/12/05 15:26:01;;;;;;;2.93;2.20;;;5.90;99.90;;;6.10;80.94;99540.78;5051715;28;20673;-67
2021/12/05 15:28:28;;;;;;;1.17;1.10;;;5.90;99.90;;;6.10;81.11;99542.53;5051830;28;21182;-66
2021/12/05 15:30:55;;;;;;;1.20;1.17;;;5.90;99.90;;;6.15;81.30;99548.22;5053156;28;20734;-64
2021/12/05 15:33:25;;;;;;;1.20;1.10;;;5.90;99.90;;;6.16;81.69;99548.09;5053119;28;20623;-65
2021/12/05 15:35:55;;;;;;;1.10;1.10;;;6.00;99.90;;;6.18;82.34;99548.81;5052818;28;20615;-65
2021/12/05 15:38:28;;;;;;;2.40;1.23;;;6.00;99.90;;;6.24;81.79;99557.91;5051829;28;20710;-65
2021/12/05 15:41:01;;;;;;;1.60;1.30;;;6.10;99.90;;;6.30;82.19;99551.47;5052415;28;20773;-65
2021/12/05 15:43:32;;;;;;;2.27;1.63;;;6.10;99.90;;;6.28;82.58;99554.19;5047164;28;20655;-69
2021/12/05 15:45:59;;;;;;;1.60;1.50;;;6.10;99.90;;;6.31;83.03;99553.13;5051278;28;20611;-66
2021/12/05 15:48:32;;;;;;;1.60;1.50;;;6.10;99.90;;;6.31;83.17;99558.28;5051675;28;20635;-66
2021/12/05 15:51:04;;;;;;;1.73;1.63;;;6.20;99.90;;;6.35;81.85;99564.91;5052105;28;21030;-67
2021/12/05 15:53:35;;;;;;;1.70;1.60;;;6.20;99.90;;;6.33;82.52;99562.44;5035124;28;20726;-64
2021/12/05 15:56:09;;;;;;;1.10;1.10;;;6.20;99.90;;;6.36;81.61;99567.41;5052363;28;21241;-67
2021/12/05 15:58:58;;;;;;;1.37;1.37;;;6.20;99.90;;;6.33;82.28;99571.97;5051599;28;20680;-66
2021/12/05 16:01:27;;;;;;;1.40;1.23;;;6.10;99.90;;;6.30;82.42;99572.19;5050496;28;20667;-65
2021/12/05 16:04:01;;;;;;;1.43;1.33;;;6.10;99.90;;;6.30;81.93;99580.81;5052006;28;21251;-66
2021/12/05 16:06:38;;;;;;;1.90;1.63;;;6.20;99.90;;;6.33;81.73;99582.34;5049900;28;20608;-68
2021/12/05 16:09:18;;;;;;;4.60;2.10;;;6.10;99.90;;;6.30;81.92;99582.56;5040926;28;21237;-65
2021/12/05 16:11:50;;;;;;;1.37;1.27;;;6.20;99.90;;;6.32;82.17;99586.72;5039848;28;20658;-66
2021/12/05 16:14:33;;;;;;;3.40;1.67;;;6.20;99.90;;;6.20;82.92;99584.97;5031764;28;20663;-64
2021/12/05 16:17:00;;;;;;;3.80;2.80;;;6.10;99.90;;;6.17;83.51;99593.81;5043625;28;20703;-64
2021/12/05 16:19:28;;;;;;;2.50;1.30;;;6.00;99.90;;;6.13;83.14;99583.75;5069468;28;20603;-66